首页
METAR-TAF:

METAR-TAF

机场 :

大章克申, 科羅拉多州, 美国

纬度: 39-08-02N, 经度: 108-32-19W, 海拔: 1481米

当前天气观测

该预报发布于33分钟前的14:53 UTC
风速3节,风向东南
温度 -2°C
湿度 86%
气压 1021 hPa
能見度: 16.1公里
少量云层高于4000英尺
多云层高于6500英尺
阴天层高于8000英尺

METAR: KGJT 291453Z 13003KT 10SM FEW040 BKN065 OVC080 M02/M04 A3014 RMK AO2 SLP223 60000 T10221044 53007

时间: 08:26 (15:26 UTC)

预报

该预报发布于3小时和59分钟前的11:27 UTC
预报有效从29日的 12点(UTC)到 30日的 12点(UTC)
风速4节,风向
能見度: 3.2公里
少量云层高于400英尺
阴天层高于4000英尺
小雪, 轻雾, 附近有阵雨
从 29日的 1300点(UTC)
风速节,风向
能見度: 10公里
多云层高于5000英尺
附近有阵雨
从 29日的 1400点(UTC)
风速节,风向
能見度: 10公里
多云层高于6000英尺
从 29日的 1600点(UTC)
风速3节,风向多变
能見度: 10公里
多云层高于6000英尺
从 29日的 2100点(UTC)
风速6节,风向北转西北
能見度: 10公里
散云层高于8000英尺
从 30日的 0300点(UTC)
风速5节,风向
能見度: 10公里
少量云层高于20000英尺

TAF: KGJT 291127Z 2912/3012 10004KT 2SM -SN BR VCSH FEW004 OVC040 FM291300 00000KT P6SM VCSH BKN050 FM291400 00000KT P6SM BKN060 FM291600 VRB03KT P6SM BKN060 FM292100 33006KT P6SM SCT080 FM300300 36005KT P6SM FEW200

超过4000个机场的气象观测和天气预报(METAR&TAF报告)。

可查询的气象台以黄色和红色小点在地图上表示。

将鼠标移到小点上方,可查看气象台名称。

然后点击查看天气观测和预报。

如需切换地图:点击带黑十字的绿色按钮放大地图;点击带横线的绿色按钮缩小地图;或者点击绿色箭头查看邻近地区的地图。


METAR-TAF: